アラート の空港の天気 - METARとTAF

Alert Airport ( CYLT / YLT ) - カナダ ヌナブト準州アラート
飛行場実況気象(Metar)
観測時間12/13 16:00 EST (12/13 21:00 UTC)
風向・風速静穏 0m/s
視程10km以上
天気現象弱い雪
全天を覆う雲 雲底高度 340m
気温-25℃
湿度76%
気圧998.5hPa
METARCYLT 132100Z CCA 00000KT 9SM -SN OVC011 M25/M28 A2947 RMK ST8 LAST OBS/NEXT 141300 UTC SLP985
過去の天気等 Google飛行場航空写真 Wunderground天気予報

過去48時間のMETAR

飛行場予報(TAF)
発表時間: 12/13 14:09 EST (12/13 19:09 UTC)
予報対象時間: 13日14時 EST ~ 14日1時 EST
風向・風速不定 2m/s
視程10km以上
全天の8割程度の雲 雲底高度 370m
13日14時 EST ~ 14日1時 EST に一時的に
全天の4割程度の雲 雲底高度 370m
TAF AMD CYLT 131909Z 1319/1406 VRB03KT P6SM BKN012
TEMPO 1319/1406 SCT012 RMK NXT FCST BY 140000Z